Time;durP1;ratioP1;P1;durP2;ratioP2;P2;SDS_P1;SDS_P2;PMS_P1;PMS_P2;Temp;Humidity;BMP_temperature;BMP_pressure;BME280_temperature;BME280_humidity;BME280_pressure;Samples;Min_cycle;Max_cycle;Signal;HPM_P1;HPM_P2
2023/06/09 00:00:26;;;;;;;9.65;2.85;;;20.40;67.80;;;;;;5093555;28;20036;-79
2023/06/09 00:02:52;;;;;;;8.73;2.70;;;20.30;67.90;;;;;;5095386;28;20032;-79
2023/06/09 00:05:18;;;;;;;10.35;2.78;;;20.30;67.90;;;;;;5096853;28;20025;-79
2023/06/09 00:07:47;;;;;;;10.82;2.60;;;20.30;67.90;;;;;;5095450;28;20532;-79
2023/06/09 00:10:13;;;;;;;5.65;2.92;;;20.30;68.20;;;;;;5095009;28;20042;-79
2023/06/09 00:12:40;;;;;;;10.52;2.88;;;20.20;68.30;;;;;;5096168;28;20024;-79
2023/06/09 00:15:09;;;;;;;12.00;3.55;;;20.20;68.50;;;;;;5096466;28;20036;-79
2023/06/09 00:17:39;;;;;;;5.63;2.50;;;20.10;68.60;;;;;;5096244;28;20115;-78
2023/06/09 00:20:08;;;;;;;8.52;2.90;;;20.00;68.90;;;;;;5096427;28;20039;-78
2023/06/09 00:22:38;;;;;;;8.43;2.92;;;20.10;68.80;;;;;;5096683;28;20478;-78
2023/06/09 00:25:04;;;;;;;8.85;3.22;;;20.00;68.80;;;;;;5096476;28;20480;-79
2023/06/09 00:27:30;;;;;;;9.05;2.78;;;20.00;68.90;;;;;;5096339;28;20032;-78
2023/06/09 00:29:56;;;;;;;8.32;2.72;;;19.90;69.20;;;;;;5095718;28;20039;-78
2023/06/09 00:32:21;;;;;;;8.35;2.65;;;19.70;69.50;;;;;;5095998;28;20090;-78
2023/06/09 00:34:47;;;;;;;12.10;3.20;;;19.80;69.60;;;;;;5096162;28;20028;-79
2023/06/09 00:37:13;;;;;;;9.57;3.05;;;19.80;69.40;;;;;;5096104;28;20034;-78
2023/06/09 00:39:38;;;;;;;10.07;2.67;;;19.90;69.30;;;;;;5095946;28;20028;-78
2023/06/09 00:42:05;;;;;;;8.65;2.75;;;19.90;69.40;;;;;;5095798;28;20484;-78
2023/06/09 00:44:30;;;;;;;8.95;2.83;;;19.80;69.50;;;;;;5095937;28;20415;-78
2023/06/09 00:46:56;;;;;;;8.52;2.80;;;19.80;69.70;;;;;;5095906;28;20093;-78
2023/06/09 00:49:22;;;;;;;10.05;3.13;;;19.80;69.60;;;;;;5095310;28;20032;-78
2023/06/09 00:51:48;;;;;;;11.73;3.33;;;19.90;69.70;;;;;;5095696;28;20087;-78
2023/06/09 00:54:14;;;;;;;12.80;3.10;;;19.90;69.40;;;;;;5094292;28;20465;-78
2023/06/09 00:56:40;;;;;;;7.97;2.83;;;19.80;69.80;;;;;;5095622;28;20024;-79
2023/06/09 00:59:10;;;;;;;10.40;2.83;;;19.80;69.90;;;;;;5095029;28;20077;-78
2023/06/09 01:01:37;;;;;;;8.60;2.72;;;19.80;70.00;;;;;;5095102;28;20391;-78
2023/06/09 01:04:03;;;;;;;9.48;2.55;;;19.80;70.20;;;;;;5077539;28;20100;-78
2023/06/09 01:06:47;;;;;;;10.05;2.70;;;19.70;70.30;;;;;;5095513;28;20039;-79
2023/06/09 01:09:22;;;;;;;7.03;3.13;;;19.80;70.20;;;;;;5095364;28;20016;-78
2023/06/09 01:12:08;;;;;;;10.93;2.92;;;19.70;71.20;;;;;;5093681;28;20472;-78
2023/06/09 01:14:48;;;;;;;7.50;2.78;;;19.70;70.70;;;;;;5084381;28;20093;-78
2023/06/09 01:17:18;;;;;;;9.95;2.25;;;19.50;70.90;;;;;;5095207;28;20084;-79
2023/06/09 01:19:47;;;;;;;9.73;2.55;;;19.60;70.80;;;;;;5095313;28;20028;-79
2023/06/09 01:22:34;;;;;;;13.13;3.88;;;19.60;70.70;;;;;;5094910;28;20070;-79
2023/06/09 01:25:34;;;;;;;8.43;3.10;;;19.50;71.10;;;;;;5094869;28;20468;-78
2023/06/09 01:28:23;;;;;;;8.23;2.85;;;19.20;71.90;;;;;;5095051;28;20063;-78
2023/06/09 01:30:51;;;;;;;4.82;2.30;;;19.10;72.40;;;;;;5093565;28;20494;-78
2023/06/09 01:33:22;;;;;;;8.82;3.20;;;19.20;72.30;;;;;;5094996;28;20078;-78
2023/06/09 01:35:49;;;;;;;7.20;2.72;;;19.40;71.90;;;;;;5095047;28;20106;-79
2023/06/09 01:38:16;;;;;;;7.93;2.33;;;19.60;71.80;;;;;;5093816;28;20036;-78
2023/06/09 01:40:43;;;;;;;10.15;2.65;;;19.60;71.30;;;;;;5094854;28;20046;-78
2023/06/09 01:43:09;;;;;;;8.65;2.83;;;19.60;71.10;;;;;;5094734;28;20061;-78
2023/06/09 01:45:35;;;;;;;5.35;2.30;;;19.60;71.30;;;;;;5094528;28;20028;-78
2023/06/09 01:48:26;;;;;;;8.63;2.65;;;19.50;71.60;;;;;;5093398;28;20032;-78
2023/06/09 01:51:01;;;;;;;10.35;3.00;;;19.60;71.70;;;;;;5066532;28;20392;-78
2023/06/09 01:53:32;;;;;;;13.18;3.20;;;19.60;71.50;;;;;;5094571;28;20047;-78
2023/06/09 01:56:06;;;;;;;9.90;3.00;;;19.60;71.20;;;;;;5093537;28;20067;-78
2023/06/09 01:58:51;;;;;;;13.25;3.63;;;19.50;71.70;;;;;;5093890;28;20024;-78
2023/06/09 02:01:18;;;;;;;10.35;3.05;;;19.40;71.90;;;;;;5094234;28;20027;-78
2023/06/09 02:03:47;;;;;;;8.75;3.03;;;19.40;72.10;;;;;;5093172;28;20169;-78
2023/06/09 02:06:14;;;;;;;8.27;2.70;;;19.30;72.20;;;;;;5094133;28;20464;-78
2023/06/09 02:08:42;;;;;;;8.25;2.78;;;19.30;72.40;;;;;;5094105;28;20053;-78
2023/06/09 02:11:10;;;;;;;13.55;3.40;;;19.40;72.30;;;;;;5094157;28;20091;-78
2023/06/09 02:13:35;;;;;;;13.77;3.35;;;19.40;72.00;;;;;;5093044;28;20028;-78
2023/06/09 02:16:01;;;;;;;9.70;2.88;;;19.20;72.20;;;;;;5094053;28;20028;-78
2023/06/09 02:18:27;;;;;;;8.30;2.75;;;19.20;72.50;;;;;;5094144;28;20066;-78
2023/06/09 02:20:53;;;;;;;9.75;3.00;;;19.10;72.40;;;;;;5093756;28;20035;-78
2023/06/09 02:23:19;;;;;;;8.40;3.13;;;19.10;72.60;;;;;;5093533;28;20051;-78
2023/06/09 02:25:45;;;;;;;9.05;3.00;;;19.00;72.70;;;;;;5094104;28;20050;-78
2023/06/09 02:28:12;;;;;;;9.48;3.08;;;19.10;72.70;;;;;;5092837;28;20028;-78
2023/06/09 02:30:38;;;;;;;10.55;2.95;;;19.00;72.70;;;;;;5093169;28;20442;-78
2023/06/09 02:33:04;;;;;;;8.20;2.67;;;19.00;72.80;;;;;;5092626;28;20051;-78
2023/06/09 02:35:30;;;;;;;10.68;3.45;;;18.90;72.80;;;;;;5093568;28;20024;-79
2023/06/09 02:37:57;;;;;;;11.88;3.42;;;19.00;72.80;;;;;;5093616;28;20113;-78
2023/06/09 02:40:27;;;;;;;12.82;3.17;;;18.90;72.60;;;;;;5092673;28;20032;-78
2023/06/09 02:42:53;;;;;;;10.00;3.03;;;18.80;73.00;;;;;;5093861;28;20024;-78
2023/06/09 02:45:19;;;;;;;14.35;3.45;;;18.50;73.50;;;;;;5092516;28;20468;-78
2023/06/09 02:47:45;;;;;;;10.82;3.60;;;18.50;73.80;;;;;;5093513;28;20032;-78
2023/06/09 02:50:11;;;;;;;9.02;3.53;;;18.40;73.90;;;;;;5093165;28;20472;-78
2023/06/09 02:52:39;;;;;;;10.15;2.67;;;18.30;74.00;;;;;;5093832;28;20078;-78
2023/06/09 02:55:06;;;;;;;8.98;2.97;;;18.30;74.40;;;;;;5093343;28;20419;-78
2023/06/09 02:57:31;;;;;;;10.82;3.38;;;18.30;74.40;;;;;;5093795;28;20031;-78
2023/06/09 02:59:58;;;;;;;7.97;3.15;;;18.40;74.20;;;;;;5093264;28;20036;-78
2023/06/09 03:02:24;;;;;;;10.55;3.47;;;18.50;74.00;;;;;;5092311;28;20036;-78
2023/06/09 03:04:52;;;;;;;12.05;3.72;;;18.60;74.00;;;;;;5093386;28;20028;-78
2023/06/09 03:07:17;;;;;;;13.65;3.58;;;18.60;73.80;;;;;;5093591;28;20067;-78
2023/06/09 03:09:43;;;;;;;10.98;3.20;;;18.50;73.80;;;;;;5092183;28;20464;-78
2023/06/09 03:12:10;;;;;;;10.13;3.13;;;18.40;73.80;;;;;;5093313;28;20028;-78
2023/06/09 03:14:35;;;;;;;10.13;2.88;;;18.40;74.10;;;;;;5092465;28;20547;-78
2023/06/09 03:17:04;;;;;;;9.98;3.42;;;18.30;74.00;;;;;;5093540;28;20111;-78
2023/06/09 03:19:30;;;;;;;9.77;3.50;;;18.20;74.20;;;;;;5093322;28;20025;-78
2023/06/09 03:21:57;;;;;;;13.18;3.60;;;18.20;74.60;;;;;;5091951;28;20039;-78
2023/06/09 03:24:25;;;;;;;14.43;3.95;;;17.90;75.20;;;;;;5093327;28;20028;-78
2023/06/09 03:26:52;;;;;;;11.25;3.80;;;17.70;75.90;;;;;;5093109;28;20078;-78
2023/06/09 03:29:19;;;;;;;12.13;3.55;;;17.50;76.40;;;;;;5093014;28;20070;-78
2023/06/09 03:31:45;;;;;;;12.23;3.45;;;17.50;76.90;;;;;;5093282;28;20051;-78
2023/06/09 03:34:11;;;;;;;8.88;2.78;;;17.40;77.20;;;;;;5093228;28;20021;-78
2023/06/09 03:36:37;;;;;;;15.75;4.18;;;17.40;77.20;;;;;;5096109;28;20479;-78
2023/06/09 03:39:03;;;;;;;13.05;4.03;;;17.60;77.00;;;;;;5096992;28;20388;-78
2023/06/09 03:41:29;;;;;;;14.30;3.90;;;17.50;76.90;;;;;;5097199;28;20123;-78
2023/06/09 03:43:54;;;;;;;11.60;3.60;;;17.50;77.00;;;;;;5097153;28;20452;-78
2023/06/09 03:46:20;;;;;;;13.13;4.07;;;17.60;77.30;;;;;;5096789;28;20023;-78
2023/06/09 03:48:46;;;;;;;15.05;4.68;;;17.60;76.90;;;;;;5096786;28;20050;-78
2023/06/09 03:51:12;;;;;;;14.90;3.50;;;17.50;77.20;;;;;;5096250;28;20036;-78
2023/06/09 03:53:38;;;;;;;16.10;4.35;;;17.50;77.30;;;;;;5097016;28;20028;-78
2023/06/09 03:56:03;;;;;;;12.60;4.00;;;17.60;77.30;;;;;;5096661;28;20157;-78
2023/06/09 03:58:29;;;;;;;10.85;3.25;;;17.60;77.20;;;;;;5094955;28;20024;-78
2023/06/09 04:00:55;;;;;;;16.98;4.30;;;17.70;77.20;;;;;;5097001;28;20036;-78
2023/06/09 04:03:20;;;;;;;12.23;3.10;;;17.80;77.10;;;;;;5096627;28;20478;-77
2023/06/09 04:05:47;;;;;;;7.70;3.35;;;17.80;77.20;;;;;;5078688;28;20032;-78
2023/06/09 04:08:13;;;;;;;12.90;4.10;;;17.90;77.30;;;;;;5096868;28;20048;-78
2023/06/09 04:10:40;;;;;;;10.75;3.70;;;18.00;76.70;;;;;;5095183;28;20060;-78
2023/06/09 04:13:06;;;;;;;7.68;3.25;;;18.00;76.70;;;;;;5095506;28;20478;-77
2023/06/09 04:15:32;;;;;;;21.13;5.32;;;18.20;76.70;;;;;;5095467;28;20028;-78
2023/06/09 04:17:58;;;;;;;10.30;3.55;;;18.30;76.20;;;;;;5094921;28;20379;-78
2023/06/09 04:20:24;;;;;;;16.20;4.57;;;18.20;76.20;;;;;;5096165;28;20559;-78
2023/06/09 04:22:51;;;;;;;14.52;4.57;;;18.10;76.40;;;;;;5096412;28;20526;-78
2023/06/09 04:25:19;;;;;;;9.27;3.65;;;17.90;77.20;;;;;;5096215;28;20021;-78
2023/06/09 04:27:45;;;;;;;14.45;4.38;;;17.70;77.70;;;;;;5096145;28;20132;-78
2023/06/09 04:30:11;;;;;;;13.65;4.50;;;17.70;77.90;;;;;;5094742;28;20170;-78
2023/06/09 04:32:37;;;;;;;11.65;4.38;;;17.80;78.60;;;;;;5096125;28;20036;-78
2023/06/09 04:35:03;;;;;;;9.02;3.75;;;17.80;78.00;;;;;;5094919;28;20106;-78
2023/06/09 04:37:30;;;;;;;8.30;3.13;;;17.90;78.10;;;;;;5096164;28;20157;-78
2023/06/09 04:39:56;;;;;;;13.00;3.85;;;17.90;78.20;;;;;;5095824;28;20039;-78
2023/06/09 04:42:24;;;;;;;14.70;4.45;;;18.20;77.90;;;;;;5096030;28;20472;-78
2023/06/09 04:44:50;;;;;;;14.93;4.25;;;18.10;77.80;;;;;;5095681;28;20093;-78
2023/06/09 04:47:18;;;;;;;10.18;3.50;;;18.00;78.00;;;;;;5094255;28;20039;-78
2023/06/09 04:49:46;;;;;;;10.57;4.00;;;18.00;78.10;;;;;;5094656;28;20059;-78
2023/06/09 04:52:17;;;;;;;10.68;3.80;;;18.10;78.00;;;;;;5095367;28;20138;-78
2023/06/09 04:54:44;;;;;;;12.63;4.55;;;18.20;78.00;;;;;;5095903;28;20056;-78
2023/06/09 04:57:10;;;;;;;13.50;4.93;;;18.10;78.30;;;;;;5094476;28;20032;-78
2023/06/09 04:59:40;;;;;;;9.07;3.90;;;18.20;78.50;;;;;;5095371;28;20028;-78
2023/06/09 05:02:08;;;;;;;12.88;4.38;;;18.20;78.40;;;;;;5095335;28;20032;-78
2023/06/09 05:04:34;;;;;;;11.43;3.85;;;18.20;78.50;;;;;;5095709;28;20032;-78
2023/06/09 05:07:01;;;;;;;13.73;4.00;;;18.20;78.50;;;;;;5095595;28;20020;-78
2023/06/09 05:09:27;;;;;;;12.00;4.22;;;18.20;78.70;;;;;;5095436;28;20060;-78
2023/06/09 05:11:53;;;;;;;13.07;4.75;;;18.30;78.90;;;;;;5095488;28;20117;-78
2023/06/09 05:14:19;;;;;;;12.18;4.75;;;18.30;79.00;;;;;;5095147;28;20119;-78
2023/06/09 05:16:45;;;;;;;11.35;4.05;;;18.20;79.30;;;;;;5095131;28;20028;-78
2023/06/09 05:19:11;;;;;;;11.90;4.22;;;18.20;79.40;;;;;;5095209;28;20021;-78
2023/06/09 05:21:37;;;;;;;13.02;4.32;;;18.30;79.30;;;;;;5095297;28;20112;-78
2023/06/09 05:24:03;;;;;;;12.60;4.40;;;18.30;79.40;;;;;;5095192;28;20033;-77
2023/06/09 05:26:29;;;;;;;7.93;3.60;;;18.30;79.70;;;;;;5093632;28;20042;-78
2023/06/09 05:28:55;;;;;;;9.77;3.70;;;18.30;79.70;;;;;;5094778;28;20126;-78
2023/06/09 05:31:20;;;;;;;13.60;4.70;;;18.50;79.60;;;;;;5095109;28;20075;-78
2023/06/09 05:33:46;;;;;;;11.43;4.38;;;18.60;79.40;;;;;;5077005;28;20043;-78
2023/06/09 05:36:12;;;;;;;9.45;4.03;;;18.60;79.40;;;;;;5095063;28;20024;-79
2023/06/09 05:38:38;;;;;;;12.15;4.25;;;18.70;79.40;;;;;;5095023;28;20392;-78
2023/06/09 05:41:03;;;;;;;12.43;3.95;;;18.70;79.50;;;;;;5094654;28;20035;-78
2023/06/09 05:43:29;;;;;;;14.07;4.60;;;18.80;79.50;;;;;;5095026;28;20070;-78
2023/06/09 05:45:56;;;;;;;12.85;4.75;;;18.80;79.50;;;;;;5094752;28;20043;-78
2023/06/09 05:48:22;;;;;;;15.75;5.20;;;18.70;79.70;;;;;;5094878;28;20020;-78
2023/06/09 05:50:48;;;;;;;11.23;4.35;;;18.70;80.10;;;;;;5093043;28;20500;-79
2023/06/09 05:53:17;;;;;;;12.40;5.30;;;18.80;80.00;;;;;;5094819;28;20451;-79
2023/06/09 05:55:46;;;;;;;13.63;4.90;;;18.80;80.20;;;;;;5094223;28;20550;-79
2023/06/09 05:58:13;;;;;;;13.05;5.05;;;18.70;80.10;;;;;;5092339;28;20055;-79
2023/06/09 06:00:39;;;;;;;12.40;4.82;;;18.80;80.00;;;;;;5094110;28;20040;-79
2023/06/09 06:03:06;;;;;;;12.70;5.13;;;18.70;80.40;;;;;;5093001;28;20032;-79
2023/06/09 06:05:32;;;;;;;15.77;6.47;;;18.80;80.40;;;;;;5093004;28;20024;-79
2023/06/09 06:08:01;;;;;;;11.13;3.85;;;18.90;80.40;;;;;;5094405;28;20032;-78
2023/06/09 06:10:26;;;;;;;11.93;4.65;;;18.90;80.30;;;;;;5094147;28;20127;-78
2023/06/09 06:12:52;;;;;;;11.48;4.13;;;19.00;79.90;;;;;;5092898;28;20500;-79
2023/06/09 06:15:18;;;;;;;11.65;4.90;;;19.20;79.80;;;;;;5094186;28;20036;-79
2023/06/09 06:17:44;;;;;;;14.93;5.47;;;19.30;79.60;;;;;;5094114;28;20107;-79
2023/06/09 06:20:11;;;;;;;14.10;4.85;;;19.30;79.20;;;;;;5094110;28;20042;-79
2023/06/09 06:22:38;;;;;;;12.25;5.07;;;19.30;79.50;;;;;;5094130;28;20031;-78
2023/06/09 06:25:04;;;;;;;15.48;5.35;;;19.40;79.70;;;;;;5092314;28;20020;-79
2023/06/09 06:27:29;;;;;;;16.88;5.80;;;19.40;79.50;;;;;;5093753;28;20549;-79
2023/06/09 06:29:55;;;;;;;13.02;4.72;;;19.50;79.50;;;;;;5092111;28;20069;-79
2023/06/09 06:32:21;;;;;;;13.10;4.50;;;19.60;79.10;;;;;;5092585;28;20115;-79
2023/06/09 06:34:46;;;;;;;14.88;4.88;;;19.80;78.80;;;;;;5094145;28;20102;-79
2023/06/09 06:37:12;;;;;;;13.52;5.57;;;19.80;78.50;;;;;;5092879;28;20031;-79
2023/06/09 06:39:38;;;;;;;14.63;4.95;;;20.00;77.90;;;;;;5094148;28;20038;-80
2023/06/09 06:42:04;;;;;;;14.88;5.38;;;20.20;78.10;;;;;;5092377;28;20089;-79
2023/06/09 06:44:29;;;;;;;11.85;4.90;;;20.30;77.20;;;;;;5093603;28;20484;-80
2023/06/09 06:46:55;;;;;;;11.30;5.45;;;20.40;77.20;;;;;;5092410;28;20043;-80
2023/06/09 06:49:21;;;;;;;13.68;5.00;;;20.40;77.00;;;;;;5093662;28;20024;-80
2023/06/09 06:51:46;;;;;;;11.25;5.53;;;20.50;77.30;;;;;;5092181;28;20063;-80
2023/06/09 06:54:14;;;;;;;12.68;4.60;;;20.50;76.40;;;;;;5093337;28;20469;-80
2023/06/09 06:56:40;;;;;;;13.50;4.80;;;20.50;76.80;;;;;;5093459;28;20103;-80
2023/06/09 06:59:05;;;;;;;15.25;5.25;;;20.60;77.10;;;;;;5091945;28;20067;-80
2023/06/09 07:01:32;;;;;;;24.50;5.70;;;20.70;76.50;;;;;;5093603;28;20115;-80
2023/06/09 07:03:58;;;;;;;12.98;4.70;;;20.60;76.80;;;;;;5093685;28;20036;-80
2023/06/09 07:06:23;;;;;;;10.35;5.50;;;20.60;77.10;;;;;;5093519;28;20073;-80
2023/06/09 07:08:50;;;;;;;11.27;4.70;;;20.80;77.00;;;;;;5094855;28;20024;-80
2023/06/09 07:11:16;;;;;;;10.43;4.60;;;20.90;76.90;;;;;;5098157;28;20032;-80
2023/06/09 07:13:41;;;;;;;12.07;4.88;;;21.00;76.00;;;;;;5098277;28;20388;-80
2023/06/09 07:16:07;;;;;;;12.18;5.13;;;21.10;76.00;;;;;;5096412;28;20046;-81
2023/06/09 07:18:33;;;;;;;14.82;5.00;;;21.20;75.70;;;;;;5096096;28;20032;-81
2023/06/09 07:20:59;;;;;;;14.30;5.15;;;21.20;75.60;;;;;;5096717;28;20039;-81
2023/06/09 07:23:24;;;;;;;12.35;5.65;;;21.30;75.50;;;;;;5096413;28;20123;-80
2023/06/09 07:25:50;;;;;;;15.77;5.07;;;21.40;75.40;;;;;;5097244;28;20107;-80
2023/06/09 07:28:16;;;;;;;14.48;5.80;;;21.40;74.90;;;;;;5096666;28;20032;-80
2023/06/09 07:30:41;;;;;;;12.20;5.30;;;21.40;75.10;;;;;;5097057;28;20464;-81
2023/06/09 07:33:08;;;;;;;8.00;4.50;;;21.50;75.30;;;;;;5095538;28;20380;-80
2023/06/09 07:35:34;;;;;;;14.45;5.30;;;21.60;75.70;;;;;;5097498;28;20438;-81
2023/06/09 07:38:01;;;;;;;10.50;5.85;;;21.70;75.10;;;;;;5097241;28;20061;-80
2023/06/09 07:40:26;;;;;;;12.82;5.45;;;21.90;75.00;;;;;;5079508;28;20387;-80
2023/06/09 07:42:52;;;;;;;11.15;5.03;;;22.00;74.80;;;;;;5097128;28;20028;-80
2023/06/09 07:45:18;;;;;;;13.13;5.65;;;22.10;75.10;;;;;;5097178;28;20346;-80
2023/06/09 07:47:44;;;;;;;8.27;4.07;;;22.30;74.00;;;;;;5097084;28;20037;-80
2023/06/09 07:50:10;;;;;;;10.85;4.95;;;22.30;74.30;;;;;;5096888;28;20415;-80
2023/06/09 07:52:39;;;;;;;11.90;5.55;;;22.50;73.90;;;;;;5096706;28;20055;-81
2023/06/09 07:55:09;;;;;;;9.82;5.05;;;22.50;73.40;;;;;;5096937;28;20169;-81
2023/06/09 07:57:35;;;;;;;14.90;5.03;;;22.50;73.20;;;;;;5096660;28;20481;-81
2023/06/09 08:00:01;;;;;;;11.23;4.75;;;22.60;73.40;;;;;;5096472;28;20034;-79
2023/06/09 08:02:28;;;;;;;10.05;4.78;;;22.70;73.40;;;;;;5096549;28;20111;-78
2023/06/09 08:04:53;;;;;;;9.43;4.35;;;22.80;72.50;;;;;;5096547;28;20043;-79
2023/06/09 08:07:19;;;;;;;11.30;5.28;;;22.90;72.10;;;;;;5095584;28;20028;-78
2023/06/09 08:09:45;;;;;;;11.00;5.35;;;23.00;72.30;;;;;;5096404;28;20028;-79
2023/06/09 08:12:11;;;;;;;10.02;4.45;;;23.20;72.90;;;;;;5096749;28;20111;-78
2023/06/09 08:14:37;;;;;;;8.55;4.72;;;23.30;72.30;;;;;;5096631;28;20425;-79
2023/06/09 08:17:03;;;;;;;12.15;5.18;;;23.40;72.00;;;;;;5096663;28;20055;-79
2023/06/09 08:19:28;;;;;;;10.55;5.43;;;23.60;71.50;;;;;;5096331;28;20337;-79
2023/06/09 08:21:55;;;;;;;13.50;5.22;;;23.70;71.40;;;;;;5077656;28;20035;-79
2023/06/09 08:24:20;;;;;;;9.15;5.22;;;23.80;70.60;;;;;;5096260;28;20028;-79
2023/06/09 08:26:48;;;;;;;11.50;5.53;;;23.80;71.10;;;;;;5096315;28;20028;-79
2023/06/09 08:29:15;;;;;;;10.93;5.60;;;23.90;70.80;;;;;;5095569;28;20464;-79
2023/06/09 08:31:41;;;;;;;11.52;4.60;;;24.00;70.70;;;;;;5094780;28;20484;-80
2023/06/09 08:34:07;;;;;;;11.35;5.30;;;24.10;70.10;;;;;;5096080;28;20391;-79
2023/06/09 08:36:33;;;;;;;9.98;5.70;;;24.20;70.40;;;;;;5095974;28;20029;-79
2023/06/09 08:38:58;;;;;;;9.70;4.90;;;24.30;70.30;;;;;;5095993;28;20032;-79
2023/06/09 08:41:28;;;;;;;9.95;5.22;;;24.40;71.30;;;;;;5095824;28;20103;-79
2023/06/09 08:43:54;;;;;;;11.27;5.13;;;24.50;71.00;;;;;;5095970;28;20035;-80
2023/06/09 08:46:21;;;;;;;10.32;5.00;;;24.60;70.40;;;;;;5095669;28;20028;-79
2023/06/09 08:48:54;;;;;;;16.65;6.63;;;24.70;70.00;;;;;;5095907;28;20130;-79
2023/06/09 08:51:21;;;;;;;12.32;5.55;;;24.90;68.70;;;;;;5095525;28;20446;-79
2023/06/09 08:53:53;;;;;;;11.57;5.03;;;24.80;69.00;;;;;;5095746;28;20058;-81
2023/06/09 08:56:21;;;;;;;11.47;5.10;;;24.90;69.80;;;;;;5097356;28;20469;-79
2023/06/09 08:58:48;;;;;;;11.93;5.78;;;25.00;68.90;;;;;;5095079;28;20028;-79
2023/06/09 09:01:14;;;;;;;12.10;5.60;;;25.00;68.00;;;;;;5094174;28;20082;-80
2023/06/09 09:03:40;;;;;;;11.70;5.78;;;25.00;68.40;;;;;;5093662;28;20024;-79
2023/06/09 09:06:06;;;;;;;12.13;4.65;;;25.10;70.00;;;;;;5093789;28;20030;-79
2023/06/09 09:08:32;;;;;;;17.17;5.97;;;25.10;70.40;;;;;;5095346;28;20028;-80
2023/06/09 09:10:58;;;;;;;9.95;4.72;;;25.30;68.20;;;;;;5094732;28;20523;-81
2023/06/09 09:13:31;;;;;;;12.40;5.20;;;25.40;68.50;;;;;;5095741;28;20040;-80
2023/06/09 09:15:59;;;;;;;10.05;5.07;;;25.50;68.50;;;;;;5094109;28;20365;-81
2023/06/09 09:18:43;;;;;;;9.23;5.00;;;25.70;68.40;;;;;;5095528;28;20036;-81
2023/06/09 09:21:08;;;;;;;10.70;5.13;;;25.80;67.80;;;;;;5094877;28;20527;-80
2023/06/09 09:23:34;;;;;;;10.77;5.30;;;25.80;66.90;;;;;;5095007;28;20028;-81
2023/06/09 09:26:03;;;;;;;9.43;5.38;;;25.90;66.80;;;;;;5095039;28;20035;-80
2023/06/09 09:28:42;;;;;;;9.40;4.97;;;25.90;67.00;;;;;;5093913;28;20028;-81
2023/06/09 09:31:08;;;;;;;9.55;5.00;;;25.90;66.70;;;;;;5094964;28;20024;-81
2023/06/09 09:33:38;;;;;;;8.90;4.53;;;26.00;67.00;;;;;;5094759;28;20028;-82
2023/06/09 09:36:09;;;;;;;11.65;5.05;;;26.20;67.50;;;;;;5093436;28;20024;-81
2023/06/09 09:38:35;;;;;;;9.98;5.70;;;26.30;66.60;;;;;;5095068;28;20093;-81
2023/06/09 09:41:00;;;;;;;11.85;4.88;;;26.40;65.70;;;;;;5095413;28;20484;-81
2023/06/09 09:43:30;;;;;;;10.65;4.78;;;26.40;65.80;;;;;;5094097;28;20024;-81
2023/06/09 09:46:01;;;;;;;10.98;5.10;;;26.50;67.20;;;;;;5093527;28;20389;-82
2023/06/09 09:48:26;;;;;;;9.57;5.07;;;26.70;66.80;;;;;;5095006;28;20032;-81
2023/06/09 09:50:57;;;;;;;11.73;5.20;;;26.70;66.50;;;;;;5093577;28;20081;-81
2023/06/09 09:53:24;;;;;;;10.18;5.15;;;26.80;66.70;;;;;;5093581;28;20056;-81
2023/06/09 09:55:52;;;;;;;12.43;5.88;;;26.90;65.80;;;;;;5093178;28;20111;-80
2023/06/09 09:58:19;;;;;;;7.95;4.68;;;26.90;66.20;;;;;;5094558;28;20032;-80
2023/06/09 10:00:46;;;;;;;18.08;5.45;;;27.00;65.80;;;;;;5094401;28;20032;-81
2023/06/09 10:03:19;;;;;;;8.88;5.03;;;27.20;64.80;;;;;;5094504;28;20024;-81
2023/06/09 10:05:47;;;;;;;10.55;5.00;;;27.10;64.50;;;;;;5094433;28;20039;-81
2023/06/09 10:08:20;;;;;;;8.48;4.72;;;27.20;65.40;;;;;;5094430;28;20031;-81
2023/06/09 10:10:47;;;;;;;9.50;4.07;;;27.20;64.60;;;;;;5094052;28;20110;-81
2023/06/09 10:13:14;;;;;;;9.05;4.25;;;27.40;64.20;;;;;;5094879;28;20040;-80
2023/06/09 10:15:45;;;;;;;11.95;4.53;;;27.50;64.00;;;;;;5094371;28;20183;-81
2023/06/09 10:18:15;;;;;;;7.53;3.67;;;27.70;63.60;;;;;;5094743;28;20032;-81
2023/06/09 10:20:42;;;;;;;8.38;3.30;;;27.80;61.60;;;;;;5094391;28;20032;-81
2023/06/09 10:23:08;;;;;;;9.77;4.30;;;27.90;62.40;;;;;;5093154;28;20460;-81
2023/06/09 10:25:34;;;;;;;8.13;4.30;;;28.10;62.00;;;;;;5094150;28;20074;-82
2023/06/09 10:28:00;;;;;;;10.35;4.45;;;28.20;60.10;;;;;;5094157;28;20475;-81
2023/06/09 10:30:26;;;;;;;8.55;3.88;;;28.20;60.50;;;;;;5092571;28;20043;-80
2023/06/09 10:33:00;;;;;;;4.93;3.70;;;28.20;60.50;;;;;;5092870;28;20042;-81
2023/06/09 10:35:28;;;;;;;6.15;3.72;;;28.20;59.10;;;;;;5092706;28;20403;-81
2023/06/09 10:37:56;;;;;;;10.10;3.65;;;28.30;59.40;;;;;;5094102;28;20532;-81
2023/06/09 10:40:38;;;;;;;7.43;3.22;;;28.30;59.40;;;;;;5094272;28;20032;-81
2023/06/09 10:43:09;;;;;;;;;;;28.30;58.30;;;;;;5093610;28;20028;-81
2023/06/09 10:46:12;;;;;;;8.93;3.47;;;28.30;58.10;;;;;;5094085;28;19954;-81
2023/06/09 10:48:45;;;;;;;5.88;3.33;;;28.50;58.70;;;;;;5061842;28;20036;-81
2023/06/09 10:51:26;;;;;;;6.57;3.13;;;28.60;57.30;;;;;;5093744;28;20036;-82
2023/06/09 10:54:07;;;;;;;5.88;3.03;;;28.70;58.70;;;;;;5092573;28;20047;-81
2023/06/09 10:56:46;;;;;;;6.00;3.65;;;28.80;57.50;;;;;;5093832;28;20028;-80
2023/06/09 10:59:27;;;;;;;4.82;3.80;;;28.80;57.30;;;;;;5093307;28;20538;-81
2023/06/09 11:02:04;;;;;;;5.40;3.30;;;28.90;57.40;;;;;;5093430;28;20035;-81
2023/06/09 11:04:43;;;;;;;7.60;3.28;;;29.00;58.00;;;;;;5094137;28;20532;-81
2023/06/09 11:07:13;;;;;;;7.15;4.18;;;29.10;57.00;;;;;;5093319;28;20039;-81
2023/06/09 11:09:50;;;;;;;6.65;3.40;;;29.10;56.30;;;;;;5092429;28;20024;-81
2023/06/09 11:12:25;;;;;;;7.15;3.38;;;29.20;56.60;;;;;;5093564;28;20036;-82
2023/06/09 11:15:00;;;;;;;9.85;3.53;;;29.30;57.80;;;;;;5093458;28;20070;-80
2023/06/09 11:17:33;;;;;;;6.53;3.70;;;29.30;56.80;;;;;;5093274;28;20086;-81
2023/06/09 11:20:20;;;;;;;5.05;3.35;;;29.40;57.00;;;;;;5093629;28;20024;-81
2023/06/09 11:22:49;;;;;;;7.85;3.33;;;29.30;56.50;;;;;;5093427;28;20024;-82
2023/06/09 11:25:15;;;;;;;10.57;2.90;;;29.40;57.20;;;;;;5093242;28;20170;-81
2023/06/09 11:27:41;;;;;;;10.35;3.33;;;29.50;57.10;;;;;;5093176;28;20536;-83
2023/06/09 11:30:18;;;;;;;6.82;3.08;;;29.60;56.80;;;;;;5091660;28;20066;-81
2023/06/09 11:32:54;;;;;;;10.90;3.17;;;29.70;56.20;;;;;;5093260;28;20047;-82
2023/06/09 11:35:28;;;;;;;6.35;3.13;;;29.80;55.30;;;;;;5092806;28;20089;-82
2023/06/09 11:38:02;;;;;;;5.05;3.25;;;29.90;55.50;;;;;;5093303;28;20031;-81
2023/06/09 11:40:39;;;;;;;7.68;3.05;;;29.90;55.20;;;;;;5092008;28;20448;-82
2023/06/09 11:43:09;;;;;;;8.27;3.22;;;30.00;55.10;;;;;;5093348;28;20028;-82
2023/06/09 11:45:35;;;;;;;3.58;2.70;;;30.00;55.40;;;;;;5093385;28;20032;-81
2023/06/09 11:48:04;;;;;;;6.00;3.20;;;30.10;55.30;;;;;;5092868;28;20024;-81
2023/06/09 11:50:42;;;;;;;4.25;2.60;;;30.10;53.80;;;;;;5093170;28;20036;-81
2023/06/09 11:53:13;;;;;;;7.25;2.95;;;30.20;53.50;;;;;;5093203;28;20052;-81
2023/06/09 11:55:39;;;;;;;5.20;3.00;;;30.20;53.30;;;;;;5093918;28;20050;-81
2023/06/09 11:58:08;;;;;;;6.80;2.90;;;30.20;54.90;;;;;;5095514;28;20028;-83
2023/06/09 12:00:38;;;;;;;4.88;3.08;;;30.20;54.80;;;;;;5096088;28;20059;-80
2023/06/09 12:03:10;;;;;;;4.72;2.70;;;30.40;53.30;;;;;;5096482;28;20044;-79
2023/06/09 12:05:36;;;;;;;2.78;2.53;;;30.50;52.90;;;;;;5096466;28;20173;-81
2023/06/09 12:08:02;;;;;;;5.68;2.92;;;30.50;52.10;;;;;;5096518;28;20036;-81
2023/06/09 12:10:29;;;;;;;6.60;3.03;;;30.40;53.50;;;;;;5096375;28;20036;-81
2023/06/09 12:12:57;;;;;;;7.53;3.20;;;30.50;53.10;;;;;;5096339;28;20365;-80
2023/06/09 12:15:26;;;;;;;4.55;2.65;;;30.50;52.60;;;;;;5096204;28;20036;-80
2023/06/09 12:17:54;;;;;;;4.28;2.50;;;30.60;51.90;;;;;;5096401;28;20066;-80
2023/06/09 12:20:28;;;;;;;4.75;3.40;;;30.50;51.50;;;;;;5096256;28;20036;-80
2023/06/09 12:23:12;;;;;;;4.85;3.00;;;30.50;52.00;;;;;;5096320;28;20039;-80
2023/06/09 12:25:40;;;;;;;9.25;3.10;;;30.50;52.80;;;;;;5096347;28;20031;-81
2023/06/09 12:28:23;;;;;;;4.78;2.83;;;30.60;51.50;;;;;;5096130;28;20422;-81
2023/06/09 12:30:54;;;;;;;5.05;3.47;;;30.60;50.60;;;;;;5095771;28;20032;-79
2023/06/09 12:33:21;;;;;;;4.57;2.65;;;30.80;51.80;;;;;;5096116;28;20479;-81
2023/06/09 12:35:51;;;;;;;5.03;2.70;;;30.80;51.40;;;;;;5096321;28;20062;-80
2023/06/09 12:38:19;;;;;;;8.05;2.95;;;30.90;50.10;;;;;;5096324;28;20038;-80
2023/06/09 12:40:54;;;;;;;3.67;3.20;;;30.90;50.40;;;;;;5095825;28;20372;-79
2023/06/09 12:43:22;;;;;;;2.95;2.70;;;30.90;50.10;;;;;;5095693;28;20540;-79
2023/06/09 12:45:52;;;;;;;5.63;3.05;;;30.90;50.10;;;;;;5096217;28;20064;-80